Terminal Aerodrome Forecast
Issued by NWS

Home | Current Version | Previous Version | Text Only | Print | Product List | Glossary On
Versions: 1 2 3 4 5 6 7 8 9 10 11 12 13 14 15 16 17 18
000
FTUS44 KLZK 281100
TAFLIT
TAF
KLIT 281120Z 2812/2912 11005KT P6SM OVC100
     FM281400 11008KT P6SM -RA SCT040 OVC080
     FM282000 10009KT P6SM OVC060
     FM290000 09005KT P6SM SCT060 BKN250=

USA.gov is the U.S. government's official web portal to all federal, state and local government web resources and services.